sensor_id;sensor_type;location;lat;lon;timestamp;P1;durP1;ratioP1;P2;durP2;ratioP2
50681;SDS011;36779;52.168;20.878;2022-07-05T00:00:22;8.80;;;7.90;;
50681;SDS011;36779;52.168;20.878;2022-07-05T00:03:12;12.10;;;9.20;;
50681;SDS011;36779;52.168;20.878;2022-07-05T00:06:02;10.50;;;9.30;;
50681;SDS011;36779;52.168;20.878;2022-07-05T00:08:52;10.40;;;9.30;;
50681;SDS011;36779;52.168;20.878;2022-07-05T00:11:46;10.20;;;9.00;;
50681;SDS011;36779;52.168;20.878;2022-07-05T00:14:34;8.70;;;7.80;;
50681;SDS011;36779;52.168;20.878;2022-07-05T00:17:24;8.90;;;7.80;;
50681;SDS011;36779;52.168;20.878;2022-07-05T00:20:13;9.10;;;7.70;;
50681;SDS011;36779;52.168;20.878;2022-07-05T00:23:02;8.80;;;7.60;;
50681;SDS011;36779;52.168;20.878;2022-07-05T00:25:51;8.70;;;7.90;;
50681;SDS011;36779;52.168;20.878;2022-07-05T00:28:40;11.50;;;7.30;;
50681;SDS011;36779;52.168;20.878;2022-07-05T00:31:30;8.90;;;6.70;;
50681;SDS011;36779;52.168;20.878;2022-07-05T00:34:19;7.20;;;6.30;;
50681;SDS011;36779;52.168;20.878;2022-07-05T00:37:08;8.00;;;6.80;;
50681;SDS011;36779;52.168;20.878;2022-07-05T00:39:58;7.50;;;6.80;;
50681;SDS011;36779;52.168;20.878;2022-07-05T00:42:48;7.50;;;6.60;;
50681;SDS011;36779;52.168;20.878;2022-07-05T00:45:37;8.30;;;6.70;;
50681;SDS011;36779;52.168;20.878;2022-07-05T00:48:26;6.70;;;6.00;;
50681;SDS011;36779;52.168;20.878;2022-07-05T00:51:09;6.30;;;5.70;;
50681;SDS011;36779;52.168;20.878;2022-07-05T00:53:48;6.80;;;6.20;;
50681;SDS011;36779;52.168;20.878;2022-07-05T00:56:38;6.70;;;6.00;;
50681;SDS011;36779;52.168;20.878;2022-07-05T00:59:27;7.00;;;6.20;;
50681;SDS011;36779;52.168;20.878;2022-07-05T01:02:19;7.10;;;6.40;;
50681;SDS011;36779;52.168;20.878;2022-07-05T01:05:11;7.00;;;6.30;;
50681;SDS011;36779;52.168;20.878;2022-07-05T01:08:01;6.80;;;6.00;;
50681;SDS011;36779;52.168;20.878;2022-07-05T01:10:50;7.50;;;6.10;;
50681;SDS011;36779;52.168;20.878;2022-07-05T01:13:40;6.50;;;5.70;;
50681;SDS011;36779;52.168;20.878;2022-07-05T01:16:29;8.70;;;6.30;;
50681;SDS011;36779;52.168;20.878;2022-07-05T01:19:21;6.70;;;6.10;;
50681;SDS011;36779;52.168;20.878;2022-07-05T01:22:12;7.00;;;6.30;;
50681;SDS011;36779;52.168;20.878;2022-07-05T01:25:08;8.80;;;6.90;;
50681;SDS011;36779;52.168;20.878;2022-07-05T01:27:59;8.30;;;7.00;;
50681;SDS011;36779;52.168;20.878;2022-07-05T01:30:50;6.80;;;6.20;;
50681;SDS011;36779;52.168;20.878;2022-07-05T01:33:39;7.50;;;5.60;;
50681;SDS011;36779;52.168;20.878;2022-07-05T01:36:29;9.40;;;6.50;;
50681;SDS011;36779;52.168;20.878;2022-07-05T01:39:20;8.60;;;6.60;;
50681;SDS011;36779;52.168;20.878;2022-07-05T01:42:01;8.90;;;6.80;;
50681;SDS011;36779;52.168;20.878;2022-07-05T01:44:51;9.10;;;7.30;;
50681;SDS011;36779;52.168;20.878;2022-07-05T01:47:43;7.40;;;6.70;;
50681;SDS011;36779;52.168;20.878;2022-07-05T01:50:34;7.70;;;6.80;;
50681;SDS011;36779;52.168;20.878;2022-07-05T01:53:28;8.40;;;6.70;;
50681;SDS011;36779;52.168;20.878;2022-07-05T01:56:17;9.00;;;6.60;;
50681;SDS011;36779;52.168;20.878;2022-07-05T01:59:07;10.90;;;6.90;;
50681;SDS011;36779;52.168;20.878;2022-07-05T02:01:56;8.90;;;7.40;;
50681;SDS011;36779;52.168;20.878;2022-07-05T02:04:45;11.30;;;6.90;;
50681;SDS011;36779;52.168;20.878;2022-07-05T02:07:35;7.80;;;6.40;;
50681;SDS011;36779;52.168;20.878;2022-07-05T02:10:24;8.00;;;6.20;;
50681;SDS011;36779;52.168;20.878;2022-07-05T02:13:14;8.00;;;6.40;;
50681;SDS011;36779;52.168;20.878;2022-07-05T02:16:04;7.70;;;6.60;;
50681;SDS011;36779;52.168;20.878;2022-07-05T02:18:53;7.40;;;6.50;;
50681;SDS011;36779;52.168;20.878;2022-07-05T02:21:45;7.70;;;6.20;;
50681;SDS011;36779;52.168;20.878;2022-07-05T02:24:34;9.40;;;5.90;;
50681;SDS011;36779;52.168;20.878;2022-07-05T02:27:26;8.00;;;5.70;;
50681;SDS011;36779;52.168;20.878;2022-07-05T02:30:15;7.10;;;6.30;;
50681;SDS011;36779;52.168;20.878;2022-07-05T02:33:05;8.30;;;6.50;;
50681;SDS011;36779;52.168;20.878;2022-07-05T02:35:47;6.50;;;5.90;;
50681;SDS011;36779;52.168;20.878;2022-07-05T02:38:36;6.60;;;6.00;;
50681;SDS011;36779;52.168;20.878;2022-07-05T02:41:25;7.60;;;5.60;;
50681;SDS011;36779;52.168;20.878;2022-07-05T02:44:14;6.30;;;5.40;;
50681;SDS011;36779;52.168;20.878;2022-07-05T02:47:06;6.10;;;5.50;;
50681;SDS011;36779;52.168;20.878;2022-07-05T02:49:54;7.00;;;6.00;;
50681;SDS011;36779;52.168;20.878;2022-07-05T02:52:45;7.30;;;5.80;;
50681;SDS011;36779;52.168;20.878;2022-07-05T02:55:34;7.50;;;5.90;;
50681;SDS011;36779;52.168;20.878;2022-07-05T02:58:23;5.90;;;5.40;;
50681;SDS011;36779;52.168;20.878;2022-07-05T03:01:02;8.70;;;4.90;;
50681;SDS011;36779;52.168;20.878;2022-07-05T03:03:54;7.50;;;5.40;;
50681;SDS011;36779;52.168;20.878;2022-07-05T03:06:46;6.70;;;5.40;;
50681;SDS011;36779;52.168;20.878;2022-07-05T03:09:39;7.70;;;5.40;;
50681;SDS011;36779;52.168;20.878;2022-07-05T03:12:28;8.00;;;5.40;;
50681;SDS011;36779;52.168;20.878;2022-07-05T03:15:08;5.70;;;5.10;;
50681;SDS011;36779;52.168;20.878;2022-07-05T03:18:02;5.80;;;5.10;;
50681;SDS011;36779;52.168;20.878;2022-07-05T03:20:51;7.40;;;5.30;;
50681;SDS011;36779;52.168;20.878;2022-07-05T03:23:40;5.90;;;5.30;;
50681;SDS011;36779;52.168;20.878;2022-07-05T03:26:30;6.40;;;5.30;;
50681;SDS011;36779;52.168;20.878;2022-07-05T03:29:19;7.80;;;5.10;;
50681;SDS011;36779;52.168;20.878;2022-07-05T03:32:13;6.20;;;4.60;;
50681;SDS011;36779;52.168;20.878;2022-07-05T03:35:02;4.80;;;4.30;;
50681;SDS011;36779;52.168;20.878;2022-07-05T03:37:52;5.00;;;4.50;;
50681;SDS011;36779;52.168;20.878;2022-07-05T03:40:43;6.70;;;4.90;;
50681;SDS011;36779;52.168;20.878;2022-07-05T03:43:34;7.80;;;5.00;;
50681;SDS011;36779;52.168;20.878;2022-07-05T03:46:23;6.10;;;4.80;;
50681;SDS011;36779;52.168;20.878;2022-07-05T03:49:21;5.40;;;4.90;;
50681;SDS011;36779;52.168;20.878;2022-07-05T03:52:11;5.50;;;4.50;;
50681;SDS011;36779;52.168;20.878;2022-07-05T03:55:01;5.90;;;4.30;;
50681;SDS011;36779;52.168;20.878;2022-07-05T03:57:51;5.00;;;4.30;;
50681;SDS011;36779;52.168;20.878;2022-07-05T04:00:39;7.00;;;4.40;;
50681;SDS011;36779;52.168;20.878;2022-07-05T04:03:30;5.10;;;4.60;;
50681;SDS011;36779;52.168;20.878;2022-07-05T04:06:27;5.30;;;4.20;;
50681;SDS011;36779;52.168;20.878;2022-07-05T04:09:19;4.50;;;4.00;;
50681;SDS011;36779;52.168;20.878;2022-07-05T04:12:10;5.10;;;3.70;;
50681;SDS011;36779;52.168;20.878;2022-07-05T04:15:03;7.20;;;4.20;;
50681;SDS011;36779;52.168;20.878;2022-07-05T04:17:53;6.80;;;4.50;;
50681;SDS011;36779;52.168;20.878;2022-07-05T04:20:44;4.30;;;3.80;;
50681;SDS011;36779;52.168;20.878;2022-07-05T04:23:35;7.50;;;4.20;;
50681;SDS011;36779;52.168;20.878;2022-07-05T04:26:25;4.50;;;3.80;;
50681;SDS011;36779;52.168;20.878;2022-07-05T04:29:26;4.10;;;3.60;;
50681;SDS011;36779;52.168;20.878;2022-07-05T04:32:16;4.00;;;3.60;;
50681;SDS011;36779;52.168;20.878;2022-07-05T04:35:07;4.20;;;3.80;;
50681;SDS011;36779;52.168;20.878;2022-07-05T04:37:58;4.60;;;3.50;;
50681;SDS011;36779;52.168;20.878;2022-07-05T04:40:48;4.40;;;3.10;;
50681;SDS011;36779;52.168;20.878;2022-07-05T04:43:37;5.10;;;3.40;;
50681;SDS011;36779;52.168;20.878;2022-07-05T04:46:27;4.70;;;3.70;;
50681;SDS011;36779;52.168;20.878;2022-07-05T04:49:09;5.50;;;3.30;;
50681;SDS011;36779;52.168;20.878;2022-07-05T04:51:58;5.20;;;3.00;;
50681;SDS011;36779;52.168;20.878;2022-07-05T04:54:50;3.40;;;3.00;;
50681;SDS011;36779;52.168;20.878;2022-07-05T04:57:40;3.80;;;3.00;;
50681;SDS011;36779;52.168;20.878;2022-07-05T05:00:30;3.70;;;3.10;;
50681;SDS011;36779;52.168;20.878;2022-07-05T05:03:19;6.30;;;3.60;;
50681;SDS011;36779;52.168;20.878;2022-07-05T05:06:09;5.40;;;3.60;;
50681;SDS011;36779;52.168;20.878;2022-07-05T05:08:58;5.10;;;3.70;;
50681;SDS011;36779;52.168;20.878;2022-07-05T05:11:49;6.10;;;3.90;;
50681;SDS011;36779;52.168;20.878;2022-07-05T05:14:38;4.20;;;3.60;;
50681;SDS011;36779;52.168;20.878;2022-07-05T05:17:34;6.40;;;3.90;;
50681;SDS011;36779;52.168;20.878;2022-07-05T05:20:24;4.60;;;3.60;;
50681;SDS011;36779;52.168;20.878;2022-07-05T05:23:13;7.80;;;4.50;;
50681;SDS011;36779;52.168;20.878;2022-07-05T05:26:02;6.30;;;3.60;;
50681;SDS011;36779;52.168;20.878;2022-07-05T05:28:51;6.50;;;3.70;;
50681;SDS011;36779;52.168;20.878;2022-07-05T05:31:40;5.00;;;3.80;;
50681;SDS011;36779;52.168;20.878;2022-07-05T05:34:29;4.70;;;3.50;;
50681;SDS011;36779;52.168;20.878;2022-07-05T05:37:18;5.10;;;3.40;;
50681;SDS011;36779;52.168;20.878;2022-07-05T05:40:08;8.70;;;3.70;;
50681;SDS011;36779;52.168;20.878;2022-07-05T05:42:58;4.10;;;3.20;;
50681;SDS011;36779;52.168;20.878;2022-07-05T05:45:48;7.00;;;3.50;;
50681;SDS011;36779;52.168;20.878;2022-07-05T05:48:17;5.60;;;3.20;;
50681;SDS011;36779;52.168;20.878;2022-07-05T05:51:07;6.10;;;3.20;;
50681;SDS011;36779;52.168;20.878;2022-07-05T05:53:56;6.60;;;3.50;;
50681;SDS011;36779;52.168;20.878;2022-07-05T05:56:46;6.70;;;3.70;;
50681;SDS011;36779;52.168;20.878;2022-07-05T05:59:35;5.20;;;3.40;;
50681;SDS011;36779;52.168;20.878;2022-07-05T06:02:24;7.50;;;3.40;;
50681;SDS011;36779;52.168;20.878;2022-07-05T06:05:13;7.20;;;3.50;;
50681;SDS011;36779;52.168;20.878;2022-07-05T06:08:03;5.90;;;3.60;;
50681;SDS011;36779;52.168;20.878;2022-07-05T06:10:52;5.40;;;3.20;;
50681;SDS011;36779;52.168;20.878;2022-07-05T06:13:46;6.00;;;3.30;;
50681;SDS011;36779;52.168;20.878;2022-07-05T06:16:35;6.00;;;3.20;;
50681;SDS011;36779;52.168;20.878;2022-07-05T06:19:24;5.70;;;3.80;;
50681;SDS011;36779;52.168;20.878;2022-07-05T06:22:13;4.30;;;3.50;;
50681;SDS011;36779;52.168;20.878;2022-07-05T06:25:02;4.30;;;3.60;;
50681;SDS011;36779;52.168;20.878;2022-07-05T06:28:10;4.20;;;3.40;;
50681;SDS011;36779;52.168;20.878;2022-07-05T06:30:59;8.70;;;4.20;;
50681;SDS011;36779;52.168;20.878;2022-07-05T06:33:52;5.70;;;3.80;;
50681;SDS011;36779;52.168;20.878;2022-07-05T06:36:41;5.70;;;3.40;;
50681;SDS011;36779;52.168;20.878;2022-07-05T06:39:31;4.70;;;3.20;;
50681;SDS011;36779;52.168;20.878;2022-07-05T06:42:21;6.30;;;3.50;;
50681;SDS011;36779;52.168;20.878;2022-07-05T06:45:10;7.30;;;3.30;;
50681;SDS011;36779;52.168;20.878;2022-07-05T06:48:00;5.20;;;3.50;;
50681;SDS011;36779;52.168;20.878;2022-07-05T06:50:51;5.30;;;3.50;;
50681;SDS011;36779;52.168;20.878;2022-07-05T06:53:40;4.90;;;3.40;;
50681;SDS011;36779;52.168;20.878;2022-07-05T06:56:29;5.40;;;3.80;;
50681;SDS011;36779;52.168;20.878;2022-07-05T06:59:36;5.40;;;3.50;;
50681;SDS011;36779;52.168;20.878;2022-07-05T07:02:44;7.50;;;3.60;;
50681;SDS011;36779;52.168;20.878;2022-07-05T07:05:34;6.30;;;3.70;;
50681;SDS011;36779;52.168;20.878;2022-07-05T07:08:33;10.70;;;3.80;;
50681;SDS011;36779;52.168;20.878;2022-07-05T07:11:40;4.90;;;3.70;;
50681;SDS011;36779;52.168;20.878;2022-07-05T07:14:23;9.40;;;4.10;;
50681;SDS011;36779;52.168;20.878;2022-07-05T07:17:12;4.20;;;3.80;;
50681;SDS011;36779;52.168;20.878;2022-07-05T07:20:03;5.40;;;3.60;;
50681;SDS011;36779;52.168;20.878;2022-07-05T07:22:53;7.50;;;3.90;;
50681;SDS011;36779;52.168;20.878;2022-07-05T07:25:43;6.20;;;3.80;;
50681;SDS011;36779;52.168;20.878;2022-07-05T07:28:35;7.30;;;4.40;;
50681;SDS011;36779;52.168;20.878;2022-07-05T07:31:24;5.10;;;3.80;;
50681;SDS011;36779;52.168;20.878;2022-07-05T07:34:14;6.10;;;3.90;;
50681;SDS011;36779;52.168;20.878;2022-07-05T07:37:04;6.00;;;4.00;;
50681;SDS011;36779;52.168;20.878;2022-07-05T07:40:00;8.70;;;3.80;;
50681;SDS011;36779;52.168;20.878;2022-07-05T07:42:50;5.00;;;3.70;;
50681;SDS011;36779;52.168;20.878;2022-07-05T07:45:39;5.70;;;3.50;;
50681;SDS011;36779;52.168;20.878;2022-07-05T07:48:28;4.30;;;3.60;;
50681;SDS011;36779;52.168;20.878;2022-07-05T07:51:17;7.80;;;3.90;;
50681;SDS011;36779;52.168;20.878;2022-07-05T07:54:09;5.00;;;3.90;;
50681;SDS011;36779;52.168;20.878;2022-07-05T07:57:03;6.00;;;3.80;;
50681;SDS011;36779;52.168;20.878;2022-07-05T07:59:53;5.40;;;3.70;;
50681;SDS011;36779;52.168;20.878;2022-07-05T08:02:42;8.70;;;3.80;;
50681;SDS011;36779;52.168;20.878;2022-07-05T08:05:31;5.50;;;3.60;;
50681;SDS011;36779;52.168;20.878;2022-07-05T08:08:21;7.80;;;3.90;;
50681;SDS011;36779;52.168;20.878;2022-07-05T08:11:10;4.60;;;3.50;;
50681;SDS011;36779;52.168;20.878;2022-07-05T08:14:01;5.80;;;3.80;;
50681;SDS011;36779;52.168;20.878;2022-07-05T08:16:51;4.90;;;3.50;;
50681;SDS011;36779;52.168;20.878;2022-07-05T08:19:40;8.80;;;3.70;;
50681;SDS011;36779;52.168;20.878;2022-07-05T08:22:50;5.30;;;3.50;;
50681;SDS011;36779;52.168;20.878;2022-07-05T08:25:39;7.60;;;3.80;;
50681;SDS011;36779;52.168;20.878;2022-07-05T08:28:28;8.30;;;4.10;;
50681;SDS011;36779;52.168;20.878;2022-07-05T08:31:17;5.50;;;3.50;;
50681;SDS011;36779;52.168;20.878;2022-07-05T08:34:09;4.80;;;3.80;;
50681;SDS011;36779;52.168;20.878;2022-07-05T08:36:59;12.10;;;3.20;;
50681;SDS011;36779;52.168;20.878;2022-07-05T08:39:49;5.70;;;3.90;;
50681;SDS011;36779;52.168;20.878;2022-07-05T08:42:39;4.60;;;3.90;;
50681;SDS011;36779;52.168;20.878;2022-07-05T08:45:31;4.70;;;3.40;;
50681;SDS011;36779;52.168;20.878;2022-07-05T08:48:20;6.80;;;3.70;;
50681;SDS011;36779;52.168;20.878;2022-07-05T08:51:12;8.20;;;3.20;;
50681;SDS011;36779;52.168;20.878;2022-07-05T08:54:04;4.30;;;3.30;;
50681;SDS011;36779;52.168;20.878;2022-07-05T08:56:54;3.40;;;3.00;;
50681;SDS011;36779;52.168;20.878;2022-07-05T08:59:51;6.90;;;3.00;;
50681;SDS011;36779;52.168;20.878;2022-07-05T09:02:40;7.80;;;3.40;;
50681;SDS011;36779;52.168;20.878;2022-07-05T09:05:29;6.40;;;3.40;;
50681;SDS011;36779;52.168;20.878;2022-07-05T09:08:22;5.40;;;2.80;;
50681;SDS011;36779;52.168;20.878;2022-07-05T09:11:13;6.70;;;3.00;;
50681;SDS011;36779;52.168;20.878;2022-07-05T09:14:05;5.10;;;2.90;;
50681;SDS011;36779;52.168;20.878;2022-07-05T09:17:16;4.30;;;3.00;;
50681;SDS011;36779;52.168;20.878;2022-07-05T09:20:09;6.40;;;2.90;;
50681;SDS011;36779;52.168;20.878;2022-07-05T09:23:03;3.70;;;3.20;;
50681;SDS011;36779;52.168;20.878;2022-07-05T09:25:52;4.70;;;3.20;;
50681;SDS011;36779;52.168;20.878;2022-07-05T09:28:56;5.90;;;3.20;;
50681;SDS011;36779;52.168;20.878;2022-07-05T09:32:06;8.10;;;3.50;;
50681;SDS011;36779;52.168;20.878;2022-07-05T09:34:59;3.80;;;3.40;;
50681;SDS011;36779;52.168;20.878;2022-07-05T09:38:17;8.40;;;4.20;;
50681;SDS011;36779;52.168;20.878;2022-07-05T09:40:57;7.60;;;4.00;;
50681;SDS011;36779;52.168;20.878;2022-07-05T09:43:49;8.30;;;3.90;;
50681;SDS011;36779;52.168;20.878;2022-07-05T09:46:38;6.40;;;3.80;;
50681;SDS011;36779;52.168;20.878;2022-07-05T09:49:30;6.40;;;3.60;;
50681;SDS011;36779;52.168;20.878;2022-07-05T09:52:40;5.90;;;3.70;;
50681;SDS011;36779;52.168;20.878;2022-07-05T09:55:30;8.30;;;3.80;;
50681;SDS011;36779;52.168;20.878;2022-07-05T09:58:25;5.30;;;3.60;;
50681;SDS011;36779;52.168;20.878;2022-07-05T10:04:14;5.10;;;3.80;;
50681;SDS011;36779;52.168;20.878;2022-07-05T10:07:07;5.60;;;3.60;;
50681;SDS011;36779;52.168;20.878;2022-07-05T10:09:57;7.30;;;3.40;;
50681;SDS011;36779;52.168;20.878;2022-07-05T10:12:48;6.10;;;3.50;;
50681;SDS011;36779;52.168;20.878;2022-07-05T10:15:38;5.00;;;3.30;;
50681;SDS011;36779;52.168;20.878;2022-07-05T10:18:29;5.90;;;3.70;;
50681;SDS011;36779;52.168;20.878;2022-07-05T10:21:23;5.70;;;3.50;;
50681;SDS011;36779;52.168;20.878;2022-07-05T10:24:13;4.10;;;3.20;;
50681;SDS011;36779;52.168;20.878;2022-07-05T10:27:08;5.50;;;3.30;;
50681;SDS011;36779;52.168;20.878;2022-07-05T10:29:57;6.20;;;3.00;;
50681;SDS011;36779;52.168;20.878;2022-07-05T10:32:46;3.40;;;3.10;;
50681;SDS011;36779;52.168;20.878;2022-07-05T10:35:38;3.20;;;2.90;;
50681;SDS011;36779;52.168;20.878;2022-07-05T10:38:35;6.50;;;3.00;;
50681;SDS011;36779;52.168;20.878;2022-07-05T10:41:25;7.40;;;3.20;;
50681;SDS011;36779;52.168;20.878;2022-07-05T10:44:25;3.10;;;2.80;;
50681;SDS011;36779;52.168;20.878;2022-07-05T10:47:18;4.20;;;2.90;;
50681;SDS011;36779;52.168;20.878;2022-07-05T10:50:07;5.30;;;3.40;;
50681;SDS011;36779;52.168;20.878;2022-07-05T10:53:03;5.20;;;3.10;;
50681;SDS011;36779;52.168;20.878;2022-07-05T10:55:55;3.30;;;2.90;;
50681;SDS011;36779;52.168;20.878;2022-07-05T10:58:48;4.70;;;3.00;;
50681;SDS011;36779;52.168;20.878;2022-07-05T11:01:51;4.80;;;2.70;;
50681;SDS011;36779;52.168;20.878;2022-07-05T11:05:00;3.90;;;3.20;;
50681;SDS011;36779;52.168;20.878;2022-07-05T11:07:57;2.90;;;2.70;;
50681;SDS011;36779;52.168;20.878;2022-07-05T11:13:51;4.60;;;2.30;;
50681;SDS011;36779;52.168;20.878;2022-07-05T11:16:43;5.00;;;2.40;;
50681;SDS011;36779;52.168;20.878;2022-07-05T11:19:32;3.90;;;2.30;;
50681;SDS011;36779;52.168;20.878;2022-07-05T11:22:21;3.70;;;2.30;;
50681;SDS011;36779;52.168;20.878;2022-07-05T11:25:11;4.20;;;2.40;;
50681;SDS011;36779;52.168;20.878;2022-07-05T11:28:05;3.00;;;2.60;;
50681;SDS011;36779;52.168;20.878;2022-07-05T11:31:02;2.60;;;1.90;;
50681;SDS011;36779;52.168;20.878;2022-07-05T11:33:53;3.50;;;2.20;;
50681;SDS011;36779;52.168;20.878;2022-07-05T11:36:52;3.10;;;2.20;;
50681;SDS011;36779;52.168;20.878;2022-07-05T11:43:25;3.10;;;2.10;;
50681;SDS011;36779;52.168;20.878;2022-07-05T11:46:15;2.60;;;2.30;;
50681;SDS011;36779;52.168;20.878;2022-07-05T11:49:28;2.70;;;2.10;;
50681;SDS011;36779;52.168;20.878;2022-07-05T11:52:24;2.50;;;2.20;;
50681;SDS011;36779;52.168;20.878;2022-07-05T11:55:15;5.70;;;2.30;;
50681;SDS011;36779;52.168;20.878;2022-07-05T11:58:08;4.80;;;2.30;;
50681;SDS011;36779;52.168;20.878;2022-07-05T12:00:56;2.50;;;2.30;;
50681;SDS011;36779;52.168;20.878;2022-07-05T12:03:54;3.70;;;2.10;;
50681;SDS011;36779;52.168;20.878;2022-07-05T12:06:47;5.60;;;2.10;;
50681;SDS011;36779;52.168;20.878;2022-07-05T12:09:37;4.80;;;2.50;;
50681;SDS011;36779;52.168;20.878;2022-07-05T12:12:43;3.20;;;2.00;;
50681;SDS011;36779;52.168;20.878;2022-07-05T12:15:22;3.00;;;2.10;;
50681;SDS011;36779;52.168;20.878;2022-07-05T12:18:12;4.10;;;2.50;;
50681;SDS011;36779;52.168;20.878;2022-07-05T12:21:03;2.60;;;2.20;;
50681;SDS011;36779;52.168;20.878;2022-07-05T12:24:04;2.70;;;2.20;;
50681;SDS011;36779;52.168;20.878;2022-07-05T12:26:53;2.50;;;2.30;;
50681;SDS011;36779;52.168;20.878;2022-07-05T12:29:47;2.90;;;2.00;;
50681;SDS011;36779;52.168;20.878;2022-07-05T12:35:35;2.90;;;1.90;;
50681;SDS011;36779;52.168;20.878;2022-07-05T12:38:19;5.10;;;2.10;;
50681;SDS011;36779;52.168;20.878;2022-07-05T12:41:09;2.70;;;2.00;;
50681;SDS011;36779;52.168;20.878;2022-07-05T12:43:59;3.90;;;2.10;;
50681;SDS011;36779;52.168;20.878;2022-07-05T12:46:49;3.10;;;2.20;;
50681;SDS011;36779;52.168;20.878;2022-07-05T12:49:53;5.00;;;2.10;;
50681;SDS011;36779;52.168;20.878;2022-07-05T12:53:01;3.80;;;2.40;;
50681;SDS011;36779;52.168;20.878;2022-07-05T12:56:12;2.40;;;1.70;;
50681;SDS011;36779;52.168;20.878;2022-07-05T12:59:20;3.90;;;2.00;;
50681;SDS011;36779;52.168;20.878;2022-07-05T13:02:10;2.20;;;2.00;;
50681;SDS011;36779;52.168;20.878;2022-07-05T13:05:00;3.00;;;2.10;;
50681;SDS011;36779;52.168;20.878;2022-07-05T13:07:50;3.10;;;2.10;;
50681;SDS011;36779;52.168;20.878;2022-07-05T13:10:46;6.70;;;2.10;;
50681;SDS011;36779;52.168;20.878;2022-07-05T13:13:36;3.70;;;2.20;;
50681;SDS011;36779;52.168;20.878;2022-07-05T13:16:25;4.80;;;2.30;;
50681;SDS011;36779;52.168;20.878;2022-07-05T13:19:15;3.10;;;2.30;;
50681;SDS011;36779;52.168;20.878;2022-07-05T13:22:07;2.60;;;1.90;;
50681;SDS011;36779;52.168;20.878;2022-07-05T13:24:58;4.00;;;1.90;;
50681;SDS011;36779;52.168;20.878;2022-07-05T13:27:47;3.50;;;1.90;;
50681;SDS011;36779;52.168;20.878;2022-07-05T13:30:36;5.20;;;1.80;;
50681;SDS011;36779;52.168;20.878;2022-07-05T13:33:26;5.40;;;1.50;;
50681;SDS011;36779;52.168;20.878;2022-07-05T13:36:17;2.10;;;1.40;;
50681;SDS011;36779;52.168;20.878;2022-07-05T13:39:09;3.10;;;1.30;;
50681;SDS011;36779;52.168;20.878;2022-07-05T13:41:58;2.80;;;1.30;;
50681;SDS011;36779;52.168;20.878;2022-07-05T13:44:47;2.90;;;1.40;;
50681;SDS011;36779;52.168;20.878;2022-07-05T13:47:36;4.50;;;1.10;;
50681;SDS011;36779;52.168;20.878;2022-07-05T13:50:25;2.50;;;1.40;;
50681;SDS011;36779;52.168;20.878;2022-07-05T13:53:20;3.00;;;1.20;;
50681;SDS011;36779;52.168;20.878;2022-07-05T13:56:11;2.20;;;1.30;;
50681;SDS011;36779;52.168;20.878;2022-07-05T13:59:00;2.10;;;1.20;;
50681;SDS011;36779;52.168;20.878;2022-07-05T14:01:50;4.80;;;1.60;;
50681;SDS011;36779;52.168;20.878;2022-07-05T14:04:40;4.20;;;1.70;;
50681;SDS011;36779;52.168;20.878;2022-07-05T14:07:09;3.20;;;1.50;;
50681;SDS011;36779;52.168;20.878;2022-07-05T14:09:58;3.60;;;1.70;;
50681;SDS011;36779;52.168;20.878;2022-07-05T14:12:47;4.40;;;1.90;;
50681;SDS011;36779;52.168;20.878;2022-07-05T14:15:36;3.80;;;3.00;;
50681;SDS011;36779;52.168;20.878;2022-07-05T14:18:25;4.20;;;3.00;;
50681;SDS011;36779;52.168;20.878;2022-07-05T14:21:14;5.30;;;3.00;;
50681;SDS011;36779;52.168;20.878;2022-07-05T14:24:07;4.90;;;3.20;;
50681;SDS011;36779;52.168;20.878;2022-07-05T14:27:00;4.30;;;3.30;;
50681;SDS011;36779;52.168;20.878;2022-07-05T14:29:54;6.20;;;3.70;;
50681;SDS011;36779;52.168;20.878;2022-07-05T14:32:45;5.30;;;3.40;;
50681;SDS011;36779;52.168;20.878;2022-07-05T14:35:36;8.50;;;4.10;;
50681;SDS011;36779;52.168;20.878;2022-07-05T14:38:26;6.20;;;4.00;;
50681;SDS011;36779;52.168;20.878;2022-07-05T14:41:15;5.00;;;3.70;;
50681;SDS011;36779;52.168;20.878;2022-07-05T14:44:08;5.50;;;4.00;;
50681;SDS011;36779;52.168;20.878;2022-07-05T14:46:56;4.50;;;4.10;;
50681;SDS011;36779;52.168;20.878;2022-07-05T14:49:46;8.40;;;4.10;;
50681;SDS011;36779;52.168;20.878;2022-07-05T14:52:35;7.30;;;4.50;;
50681;SDS011;36779;52.168;20.878;2022-07-05T14:55:25;6.90;;;4.60;;
50681;SDS011;36779;52.168;20.878;2022-07-05T14:58:20;6.70;;;4.00;;
50681;SDS011;36779;52.168;20.878;2022-07-05T15:01:09;4.60;;;4.10;;
50681;SDS011;36779;52.168;20.878;2022-07-05T15:04:08;7.70;;;4.10;;
50681;SDS011;36779;52.168;20.878;2022-07-05T15:06:47;4.10;;;3.60;;
50681;SDS011;36779;52.168;20.878;2022-07-05T15:09:34;3.80;;;3.50;;
50681;SDS011;36779;52.168;20.878;2022-07-05T15:12:33;5.70;;;3.90;;
50681;SDS011;36779;52.168;20.878;2022-07-05T15:15:36;6.20;;;3.70;;
50681;SDS011;36779;52.168;20.878;2022-07-05T15:18:26;4.30;;;3.80;;
50681;SDS011;36779;52.168;20.878;2022-07-05T15:21:34;4.20;;;3.80;;
50681;SDS011;36779;52.168;20.878;2022-07-05T15:24:33;4.10;;;3.20;;
50681;SDS011;36779;52.168;20.878;2022-07-05T15:27:33;5.50;;;3.40;;
50681;SDS011;36779;52.168;20.878;2022-07-05T15:30:27;4.70;;;3.90;;
50681;SDS011;36779;52.168;20.878;2022-07-05T15:36:20;5.30;;;4.10;;
50681;SDS011;36779;52.168;20.878;2022-07-05T15:39:16;7.60;;;4.30;;
50681;SDS011;36779;52.168;20.878;2022-07-05T15:42:25;4.60;;;3.90;;
50681;SDS011;36779;52.168;20.878;2022-07-05T15:45:39;6.10;;;3.90;;
50681;SDS011;36779;52.168;20.878;2022-07-05T15:48:43;4.30;;;3.90;;
50681;SDS011;36779;52.168;20.878;2022-07-05T15:51:46;4.90;;;3.50;;
50681;SDS011;36779;52.168;20.878;2022-07-05T15:54:37;7.10;;;2.90;;
50681;SDS011;36779;52.168;20.878;2022-07-05T15:57:31;4.00;;;3.00;;
50681;SDS011;36779;52.168;20.878;2022-07-05T16:00:30;5.50;;;2.90;;
50681;SDS011;36779;52.168;20.878;2022-07-05T16:03:29;4.70;;;2.60;;
50681;SDS011;36779;52.168;20.878;2022-07-05T16:06:31;3.70;;;2.40;;
50681;SDS011;36779;52.168;20.878;2022-07-05T16:09:40;4.40;;;2.40;;
50681;SDS011;36779;52.168;20.878;2022-07-05T16:13:00;4.00;;;2.00;;
50681;SDS011;36779;52.168;20.878;2022-07-05T16:15:59;2.30;;;1.90;;
50681;SDS011;36779;52.168;20.878;2022-07-05T16:19:05;4.50;;;2.20;;
50681;SDS011;36779;52.168;20.878;2022-07-05T16:22:09;6.00;;;2.20;;
50681;SDS011;36779;52.168;20.878;2022-07-05T16:25:12;3.40;;;2.40;;
50681;SDS011;36779;52.168;20.878;2022-07-05T16:28:06;2.60;;;2.10;;
50681;SDS011;36779;52.168;20.878;2022-07-05T16:31:08;3.60;;;2.00;;
50681;SDS011;36779;52.168;20.878;2022-07-05T16:34:12;4.90;;;2.70;;
50681;SDS011;36779;52.168;20.878;2022-07-05T16:37:14;4.60;;;2.60;;
50681;SDS011;36779;52.168;20.878;2022-07-05T16:40:24;4.90;;;2.90;;
50681;SDS011;36779;52.168;20.878;2022-07-05T16:43:33;4.10;;;2.50;;
50681;SDS011;36779;52.168;20.878;2022-07-05T16:46:26;5.80;;;2.80;;
50681;SDS011;36779;52.168;20.878;2022-07-05T16:49:37;6.50;;;2.90;;
50681;SDS011;36779;52.168;20.878;2022-07-05T16:52:19;4.50;;;2.70;;
50681;SDS011;36779;52.168;20.878;2022-07-05T16:55:09;5.60;;;3.20;;
50681;SDS011;36779;52.168;20.878;2022-07-05T16:57:45;7.20;;;3.10;;
50681;SDS011;36779;52.168;20.878;2022-07-05T17:00:35;8.20;;;3.70;;
50681;SDS011;36779;52.168;20.878;2022-07-05T17:03:32;6.90;;;3.60;;
50681;SDS011;36779;52.168;20.878;2022-07-05T17:06:13;10.70;;;3.10;;
50681;SDS011;36779;52.168;20.878;2022-07-05T17:08:48;3.50;;;2.90;;
50681;SDS011;36779;52.168;20.878;2022-07-05T17:11:39;2.80;;;2.30;;
50681;SDS011;36779;52.168;20.878;2022-07-05T17:14:30;5.00;;;2.90;;